• Join FlightAware (Why Join?)
  • Login
  • US Flag 
11:03PM EST


 

Airport Tracker/Info


-or-


 

Live Flight TrackerFlight Track Log ✈ N86354 ✈ 21-Jul-2013 ✈ KASW - KAID

Flight Track Log - Related Links

Times and Time Zones

All times are in EDT time to prevent confusion due to time zone crossing. See the N86354 flight status page for this flight to view local times or setup timezone preferences in your user account.

Time Position Orientation Groundspeed Altitude Reporting Facility
EDT Latitude Longitude Course Direction KTS MPH feet Rate Location/Type
01:55PM 41.4344 -85.6297 180° South 121 139 4,500  Level Chicago Center
01:56PM 41.3992 -85.6297 180° South 123 142 4,300 -60 Descending Chicago Center
01:57PM 41.3647 -85.6269 177° South 125 144 4,400  Climbing Chicago Center
01:58PM 41.3311 -85.6225 174° South 124 143 4,300  Descending Chicago Center
01:59PM 41.2900 -85.6211 179° South 123 142 4,400  Climbing Chicago Center
02:01PM 41.2575 -85.6194 178° South 121 139 4,400  Level Chicago Center
02:02PM 41.2236 -85.6181 178° South 121 139 4,400  Level Chicago Center
02:03PM 41.1878 -85.6186 181° South 125 144 4,400 -60 Level Chicago Center
02:04PM 41.1525 -85.6189 180° South 126 145 4,300 -60 Descending Chicago Center
02:05PM 41.1175 -85.6181 179° South 126 145 4,300  Level Chicago Center
02:06PM 41.0778 -85.6147 176° South 123 142 4,400  Climbing Chicago Center
02:07PM 41.0436 -85.6131 178° South 122 140 4,400  Level Chicago Center
02:08PM 41.0075 -85.6122 179° South 125 144 4,400  Level Chicago Center
02:09PM 40.9728 -85.6144 183° South 126 145 4,400 -60 Level Chicago Center
02:10PM 40.9383 -85.6131 178° South 126 145 4,300 -60 Descending Chicago Center
02:11PM 40.8967 -85.6081 175° South 125 144 4,300  Level Chicago Center
02:11PM 40.8803 -85.6094 184° South 123 142 4,300 -120 Level Chicago Center
02:12PM 40.8617 -85.6061 172° South 125 144 4,200 -300 Descending Chicago Center
02:13PM 40.8256 -85.6047 178° South 127 146 3,900 -240 Descending Chicago Center
02:14PM 40.7900 -85.6061 182° South 128 147 3,800 -120 Descending Chicago Center
02:15PM 40.7556 -85.6058 180° South 126 145 3,700  Descending Chicago Center
02:16PM 40.7225 -85.6019 175° South 123 142 3,800  Climbing Chicago Center
02:17PM 40.6800 -85.5992 177° South 125 144 3,700 -60 Descending Chicago Center
02:18PM 40.6442 -85.6003 181° South 127 146 3,700  Level Chicago Center
02:19PM 40.6103 -85.6050 186° South 123 142 3,800  Climbing Chicago Center
02:20PM 40.5764 -85.6064 182° South 122 140 3,800  Level Chicago Center
02:21PM 40.5414 -85.6053 179° South 125 144 3,800  Level Chicago Center
02:22PM 40.5056 -85.6058 181° South 128 147 3,800 -60 Level Chicago Center
02:23PM 40.4631 -85.6092 183° South 128 147 3,700 -120 Descending Chicago Center
02:24PM 40.4283 -85.6097 181° South 126 145 3,600 -60 Descending Chicago Center
02:25PM 40.3939 -85.6139 185° South 125 144 3,600  Level Chicago Center
02:26PM 40.3600 -85.6161 183° South 124 143 3,600 -60 Level Chicago Center
02:27PM 40.3233 -85.6167 181° South 126 145 3,500 -60 Descending Chicago Center
02:28PM 40.2875 -85.6158 179° South 128 147 3,500 -120 Level Chicago Center
02:29PM 40.2447 -85.6158 180° South 128 147 3,300 -240 Descending Chicago Center